createdAt,value
2022-10-22T15:32:58.314Z,100473.63
2022-10-22T15:37:51.658Z,100462.44
2022-10-22T15:41:19.512Z,100464.25
2022-10-22T15:44:25.273Z,100464.25
2022-10-22T15:47:29.646Z,100476.31
2022-10-22T15:50:32.345Z,100473.03
2022-10-22T15:53:34.662Z,100476.12
2022-10-22T15:56:37.195Z,100480.25
2022-10-22T15:59:39.518Z,100480.19
2022-10-22T16:02:42.060Z,100484.91
2022-10-22T16:05:54.552Z,100505.78
2022-10-22T16:08:59.313Z,100514.94
2022-10-22T16:12:02.014Z,100517.63
2022-10-22T16:15:04.670Z,100526.62
2022-10-22T16:18:07.350Z,100535.34
2022-10-22T16:21:13.725Z,100528.09
2022-10-22T16:24:16.726Z,100535.53
2022-10-22T16:27:19.036Z,100542.13
2022-10-22T16:30:21.623Z,100548.13
2022-10-22T16:33:23.930Z,100566.16
2022-10-22T16:36:26.613Z,100577.91
2022-10-22T16:39:28.928Z,100587.03
2022-10-22T16:42:31.439Z,100594.94
2022-10-22T16:45:33.687Z,100590.78
2022-10-22T16:48:40.411Z,100603.09
2022-10-22T16:51:42.703Z,100606.22
2022-10-22T16:54:46.766Z,100604.25
2022-10-22T16:57:52.378Z,100610.03
2022-10-22T17:00:54.955Z,100611.91
2022-10-22T17:04:00.431Z,100614.03
2022-10-22T17:07:02.974Z,100617.47
2022-10-22T17:10:05.883Z,100614.97
2022-10-22T17:13:08.479Z,100616.63
2022-10-22T17:16:13.907Z,100613.66
2022-10-22T17:19:16.550Z,100606.31
2022-10-22T17:22:18.850Z,100604.13
2022-10-22T17:25:47.616Z,100599.06
2022-10-22T17:28:50.660Z,100591.44
2022-10-22T17:31:53.244Z,100595.53
2022-10-22T17:34:55.518Z,100604.13
2022-10-22T17:37:58.058Z,100610.44
2022-10-22T17:41:05.706Z,100609.00
2022-10-22T17:44:12.306Z,100617.06
2022-10-22T17:47:15.101Z,100615.81
2022-10-22T17:50:18.919Z,100625.75
2022-10-22T17:53:21.191Z,100630.19
2022-10-22T17:56:29.827Z,100632.56
2022-10-22T17:59:32.759Z,100632.78
2022-10-22T18:02:35.324Z,100635.47
2022-10-22T18:05:37.842Z,100631.94
2022-10-22T18:08:40.426Z,100643.22
2022-10-22T18:11:44.103Z,100646.53
2022-10-22T18:14:47.118Z,100644.56
2022-10-22T18:17:50.341Z,100652.94
2022-10-22T18:20:53.374Z,100660.37
2022-10-22T18:23:58.943Z,100655.09
2022-10-22T18:27:01.214Z,100653.13
2022-10-22T18:30:04.131Z,100656.66
2022-10-22T18:33:07.214Z,100661.31
2022-10-22T18:36:12.416Z,100656.03
2022-10-22T18:39:15.501Z,100676.41
2022-10-22T18:42:18.116Z,100667.31
2022-10-22T18:45:20.372Z,100675.22
2022-10-22T18:48:23.098Z,100688.91
2022-10-22T18:51:30.886Z,100683.84
2022-10-22T18:54:33.492Z,100688.00
2022-10-22T18:57:35.851Z,100691.06
2022-10-22T19:00:38.670Z,100678.25
2022-10-22T19:03:41.415Z,100675.47
2022-10-22T19:06:45.780Z,100676.19
2022-10-22T19:09:48.460Z,100681.59
2022-10-22T19:12:51.024Z,100701.63
2022-10-22T19:15:53.265Z,100690.97
2022-10-22T19:19:03.048Z,100681.34
2022-10-22T19:22:05.324Z,100688.78
2022-10-22T19:25:11.217Z,100684.22
2022-10-22T19:28:14.394Z,100694.63
2022-10-22T19:31:19.674Z,100697.22
2022-10-22T19:34:22.066Z,100701.53
2022-10-22T19:37:24.686Z,100708.94
2022-10-22T19:40:28.390Z,100708.50
2022-10-22T19:43:30.907Z,100714.63
2022-10-22T19:46:33.212Z,100719.97
2022-10-22T19:49:35.779Z,100723.97
2022-10-22T19:52:38.053Z,100730.16
2022-10-22T19:55:44.862Z,100727.44
2022-10-22T19:58:47.368Z,100729.69
2022-10-22T20:01:50.377Z,100734.84
2022-10-22T20:04:52.915Z,100739.38
2022-10-22T20:07:55.164Z,100748.78
2022-10-22T20:10:58.041Z,100751.03
2022-10-22T20:14:00.328Z,100751.66
2022-10-22T20:17:03.005Z,100752.84
2022-10-22T20:20:05.899Z,100745.16
2022-10-22T20:23:08.723Z,100753.47
2022-10-22T20:26:11.300Z,100764.59
2022-10-22T20:29:15.452Z,100765.19
2022-10-22T20:32:17.692Z,100776.59
2022-10-22T20:35:20.173Z,100770.47
2022-10-22T20:38:22.419Z,100767.41
2022-10-22T20:41:24.899Z,100763.47
2022-10-22T20:44:27.118Z,100764.53
2022-10-22T20:47:39.309Z,100772.81
2022-10-22T20:50:52.230Z,100772.50
2022-10-22T20:53:54.767Z,100787.25
2022-10-22T20:56:57.538Z,100783.97
2022-10-22T21:00:00.032Z,100788.16
2022-10-22T21:03:02.251Z,100793.22
2022-10-22T21:06:05.736Z,100786.59
2022-10-22T21:09:09.209Z,100793.91
2022-10-22T21:12:11.860Z,100799.53
2022-10-22T21:15:14.132Z,100792.66
2022-10-22T21:18:16.597Z,100795.03
2022-10-22T21:21:19.940Z,100797.06
2022-10-22T21:24:24.805Z,100796.25
2022-10-22T21:27:27.151Z,100791.50
2022-10-22T21:30:29.682Z,100797.91
2022-10-22T21:33:35.140Z,100801.75
2022-10-22T21:36:37.964Z,100805.91
2022-10-22T21:39:42.112Z,100802.31
2022-10-22T21:42:44.845Z,100794.53
2022-10-22T21:45:47.206Z,100790.69
2022-10-22T21:49:03.611Z,100789.19
2022-10-22T21:52:07.116Z,100785.09
2022-10-22T21:55:09.739Z,100780.00
2022-10-22T21:58:11.991Z,100773.22
2022-10-22T22:01:15.255Z,100778.66
2022-10-22T22:04:17.800Z,100785.22
2022-10-22T22:07:20.216Z,100786.59
2022-10-22T22:10:25.172Z,100787.41
2022-10-22T22:13:27.378Z,100775.75
2022-10-22T22:16:32.236Z,100794.56
2022-10-22T22:19:34.551Z,100792.22
2022-10-22T22:22:37.067Z,100792.56
2022-10-22T22:25:39.326Z,100786.06
2022-10-22T22:28:41.940Z,100792.22
2022-10-22T22:31:45.897Z,100804.75
2022-10-22T22:34:48.435Z,100814.00
2022-10-22T22:37:50.722Z,100816.31
2022-10-22T22:40:53.305Z,100824.34
2022-10-22T22:47:02.984Z,100812.63
2022-10-22T22:50:05.669Z,100817.00
2022-10-22T22:53:08.142Z,100830.31
2022-10-22T22:56:20.146Z,100825.88
2022-10-22T22:59:22.726Z,100837.50
2022-10-22T23:02:25.067Z,100838.62
2022-10-22T23:05:27.617Z,100859.78
2022-10-22T23:08:29.848Z,100849.81
2022-10-22T23:11:32.501Z,100851.47
2022-10-22T23:14:34.802Z,100846.44
2022-10-22T23:17:37.373Z,100849.28
2022-10-22T23:20:39.574Z,100840.37
2022-10-22T23:23:46.559Z,100857.09
2022-10-22T23:26:50.965Z,100849.91
2022-10-22T23:29:53.439Z,100832.38
2022-10-22T23:32:55.779Z,100861.03
2022-10-22T23:36:01.613Z,100853.50
2022-10-22T23:39:08.931Z,100865.78
2022-10-22T23:42:11.642Z,100868.31
2022-10-22T23:45:14.189Z,100857.75
2022-10-22T23:48:16.863Z,100851.38
2022-10-22T23:51:20.342Z,100861.94
2022-10-22T23:54:22.941Z,100860.53
2022-10-22T23:57:25.316Z,100856.66
